Time;durP1;ratioP1;P1;durP2;ratioP2;P2;SDS_P1;SDS_P2;PMS_P1;PMS_P2;Temp;Humidity;BMP_temperature;BMP_pressure;BME280_temperature;BME280_humidity;BME280_pressure;Samples;Min_cycle;Max_cycle;Signal;HPM_P1;HPM_P2
2024/03/11 00:00:33;;;;;;;21.77;13.38;;;;;;;;;;5072658;28;20100;-79
2024/03/11 00:02:59;;;;;;;21.88;12.38;;;;;;;;;;5074321;28;20078;-78
2024/03/11 00:05:27;;;;;;;17.00;11.07;;;;;;;;;;5071807;28;20063;-78
2024/03/11 00:07:54;;;;;;;20.42;12.23;;;;;;;;;;5073821;28;20107;-80
2024/03/11 00:10:20;;;;;;;22.23;12.10;;;;;;;;;;5069412;28;20135;-80
2024/03/11 00:12:51;;;;;;;19.48;13.18;;;;;;;;;;5063806;28;20104;-80
2024/03/11 00:15:20;;;;;;;17.35;11.88;;;;;;;;;;5068673;28;20490;-79
2024/03/11 00:17:50;;;;;;;20.60;12.05;;;;;;;;;;5072977;28;20029;-79
2024/03/11 00:20:16;;;;;;;21.00;13.05;;;;;;;;;;5069717;28;20123;-80
2024/03/11 00:22:42;;;;;;;19.40;12.60;;;;;;;;;;5073348;28;20017;-80
2024/03/11 00:25:09;;;;;;;20.80;12.55;;;;;;;;;;5069996;28;20393;-80
2024/03/11 00:27:38;;;;;;;22.15;12.70;;;;;;;;;;5072970;28;20033;-80
2024/03/11 00:30:06;;;;;;;19.77;12.40;;;;;;;;;;5069426;28;20017;-80
2024/03/11 00:32:32;;;;;;;18.98;11.82;;;;;;;;;;5070906;28;20044;-81
2024/03/11 00:34:58;;;;;;;21.67;12.05;;;;;;;;;;5064580;28;20021;-78
2024/03/11 00:37:24;;;;;;;23.23;13.65;;;;;;;;;;5063452;28;20028;-80
2024/03/11 00:39:51;;;;;;;24.05;14.48;;;;;;;;;;5059511;28;20024;-81
2024/03/11 00:42:18;;;;;;;23.17;12.80;;;;;;;;;;5064817;28;20019;-79
2024/03/11 00:44:46;;;;;;;20.02;12.02;;;;;;;;;;5052008;28;20047;-80
2024/03/11 00:47:12;;;;;;;21.90;12.45;;;;;;;;;;5052858;28;20024;-78
2024/03/11 00:49:38;;;;;;;21.75;12.05;;;;;;;;;;5072629;28;20028;-78
2024/03/11 00:52:04;;;;;;;22.75;12.75;;;;;;;;;;5073045;28;20078;-80
2024/03/11 00:54:30;;;;;;;23.10;12.52;;;;;;;;;;5054541;28;20024;-81
2024/03/11 00:56:58;;;;;;;18.80;13.15;;;;;;;;;;5052601;28;20032;-78
2024/03/11 00:59:24;;;;;;;18.42;12.27;;;;;;;;;;5054008;28;20386;-78
2024/03/11 01:01:50;;;;;;;17.63;12.63;;;;;;;;;;5064475;28;20371;-78
2024/03/11 01:04:16;;;;;;;19.90;11.38;;;;;;;;;;5071367;28;20054;-78
2024/03/11 01:06:42;;;;;;;18.75;12.30;;;;;;;;;;5071859;28;20020;-80
2024/03/11 01:09:08;;;;;;;21.38;12.48;;;;;;;;;;5064350;28;20056;-80
2024/03/11 01:11:34;;;;;;;23.13;12.38;;;;;;;;;;5063317;28;20102;-78
2024/03/11 01:14:00;;;;;;;21.38;11.32;;;;;;;;;;5058710;28;20024;-78
2024/03/11 01:16:26;;;;;;;18.92;12.27;;;;;;;;;;5063094;28;20497;-80
2024/03/11 01:18:53;;;;;;;19.10;11.35;;;;;;;;;;5057705;28;20386;-80
2024/03/11 01:21:20;;;;;;;20.15;12.68;;;;;;;;;;5063500;28;20024;-78
2024/03/11 01:23:47;;;;;;;19.25;11.77;;;;;;;;;;5058575;28;20025;-79
2024/03/11 01:26:13;;;;;;;19.85;11.57;;;;;;;;;;5063309;28;20024;-79
2024/03/11 01:28:39;;;;;;;15.68;11.48;;;;;;;;;;5057384;28;20033;-81
2024/03/11 01:31:05;;;;;;;19.02;12.38;;;;;;;;;;5061966;28;20454;-79
2024/03/11 01:33:31;;;;;;;21.98;12.40;;;;;;;;;;5056709;28;20112;-79
2024/03/11 01:35:59;;;;;;;20.05;11.75;;;;;;;;;;5062560;28;20021;-81
2024/03/11 01:38:26;;;;;;;18.30;11.25;;;;;;;;;;5057867;28;20017;-79
2024/03/11 01:40:52;;;;;;;19.73;11.57;;;;;;;;;;5062798;28;20012;-78
2024/03/11 01:43:19;;;;;;;20.35;12.70;;;;;;;;;;5057233;28;20040;-79
2024/03/11 01:45:46;;;;;;;22.83;13.10;;;;;;;;;;5063158;28;20052;-80
2024/03/11 01:48:12;;;;;;;21.80;12.30;;;;;;;;;;5067432;28;20024;-81
2024/03/11 01:50:38;;;;;;;20.33;11.50;;;;;;;;;;5066826;28;20094;-81
2024/03/11 01:53:04;;;;;;;20.00;11.70;;;;;;;;;;5061521;28;20025;-79
2024/03/11 01:55:30;;;;;;;18.02;11.25;;;;;;;;;;5057807;28;20061;-80
2024/03/11 01:57:58;;;;;;;20.38;12.90;;;;;;;;;;5055122;28;20021;-78
2024/03/11 02:00:24;;;;;;;16.35;10.70;;;;;;;;;;5055868;28;20033;-81
2024/03/11 02:02:54;;;;;;;22.40;12.07;;;;;;;;;;5069795;28;20034;-78
2024/03/11 02:05:20;;;;;;;16.73;10.82;;;;;;;;;;5068176;28;20453;-79
2024/03/11 02:07:50;;;;;;;15.23;10.23;;;;;;;;;;5069552;28;20029;-80
2024/03/11 02:10:19;;;;;;;14.73;10.60;;;;;;;;;;5060603;28;20017;-80
2024/03/11 02:12:46;;;;;;;18.05;11.05;;;;;;;;;;5057070;28;20083;-80
2024/03/11 02:15:12;;;;;;;18.40;11.00;;;;;;;;;;5058221;28;20017;-80
2024/03/11 02:17:39;;;;;;;15.40;10.35;;;;;;;;;;5058509;28;20490;-80
2024/03/11 02:20:17;;;;;;;17.73;10.55;;;;;;;;;;5058755;28;20024;-80
2024/03/11 02:22:50;;;;;;;17.20;11.18;;;;;;;;;;5059754;28;20493;-80
2024/03/11 02:25:16;;;;;;;;;;;;;;;;;;5042753;28;20067;-80
2024/03/11 02:27:42;;;;;;;17.48;10.40;;;;;;;;;;5058880;28;19908;-80
2024/03/11 02:30:08;;;;;;;16.30;11.25;;;;;;;;;;5055431;28;20056;-80
2024/03/11 02:32:35;;;;;;;20.00;11.43;;;;;;;;;;5060311;28;20434;-79
2024/03/11 02:35:01;;;;;;;21.73;12.48;;;;;;;;;;5059660;28;20025;-79
2024/03/11 02:37:27;;;;;;;16.17;11.30;;;;;;;;;;5060329;28;20027;-80
2024/03/11 02:39:53;;;;;;;21.00;11.90;;;;;;;;;;5059083;28;20021;-80
2024/03/11 02:42:19;;;;;;;22.52;13.05;;;;;;;;;;5058788;28;20052;-80
2024/03/11 02:44:45;;;;;;;18.42;11.73;;;;;;;;;;5055255;28;20494;-80
2024/03/11 02:47:11;;;;;;;21.50;11.85;;;;;;;;;;5068143;28;20020;-78
2024/03/11 02:49:37;;;;;;;17.98;11.35;;;;;;;;;;5076070;28;20038;-78
2024/03/11 02:52:03;;;;;;;19.02;11.30;;;;;;;;;;5065792;28;20033;-78
2024/03/11 02:54:29;;;;;;;17.90;12.25;;;;;;;;;;5054941;28;20036;-81
2024/03/11 02:56:55;;;;;;;17.20;12.23;;;;;;;;;;5059219;28;20016;-78
2024/03/11 02:59:21;;;;;;;18.33;12.23;;;;;;;;;;5060480;28;20031;-78
2024/03/11 03:01:48;;;;;;;19.15;12.80;;;;;;;;;;5071133;28;20074;-78
2024/03/11 03:04:14;;;;;;;17.85;11.25;;;;;;;;;;5068988;28;20420;-78
2024/03/11 03:06:40;;;;;;;17.13;11.88;;;;;;;;;;5057253;28;20028;-81
2024/03/11 03:09:06;;;;;;;19.30;12.15;;;;;;;;;;5061157;28;20040;-78
2024/03/11 03:11:32;;;;;;;18.92;11.95;;;;;;;;;;5056605;28;20067;-81
2024/03/11 03:13:58;;;;;;;18.35;11.98;;;;;;;;;;5058256;28;20044;-80
2024/03/11 03:16:24;;;;;;;18.75;11.88;;;;;;;;;;5063627;28;20028;-80
2024/03/11 03:18:50;;;;;;;20.35;12.20;;;;;;;;;;5065769;28;20025;-80
2024/03/11 03:21:17;;;;;;;15.60;11.48;;;;;;;;;;5063436;28;20032;-78
2024/03/11 03:23:43;;;;;;;21.17;11.80;;;;;;;;;;5059582;28;20025;-80
2024/03/11 03:26:09;;;;;;;18.73;12.10;;;;;;;;;;5060087;28;20471;-80
2024/03/11 03:28:35;;;;;;;20.48;12.85;;;;;;;;;;5062717;28;20025;-78
2024/03/11 03:31:01;;;;;;;19.13;13.43;;;;;;;;;;5060364;28;20028;-78
2024/03/11 03:33:27;;;;;;;17.27;12.55;;;;;;;;;;5060584;28;20057;-79
2024/03/11 03:35:54;;;;;;;17.42;11.43;;;;;;;;;;5062477;28;20021;-78
2024/03/11 03:38:20;;;;;;;20.02;12.07;;;;;;;;;;5064475;28;20351;-78
2024/03/11 03:40:46;;;;;;;20.70;12.60;;;;;;;;;;5061359;28;20052;-78
2024/03/11 03:43:12;;;;;;;19.15;12.73;;;;;;;;;;5060742;28;20118;-78
2024/03/11 03:45:38;;;;;;;21.05;13.30;;;;;;;;;;5068160;28;20087;-80
2024/03/11 03:48:04;;;;;;;20.42;13.07;;;;;;;;;;5059013;28;20025;-81
2024/03/11 03:50:30;;;;;;;21.65;13.15;;;;;;;;;;5067169;28;20031;-80
2024/03/11 03:52:56;;;;;;;21.77;13.10;;;;;;;;;;5058447;28;20029;-78
2024/03/11 03:55:24;;;;;;;23.63;13.60;;;;;;;;;;5059161;28;20387;-81
2024/03/11 03:57:50;;;;;;;17.95;12.27;;;;;;;;;;5056365;28;20021;-81
2024/03/11 04:00:16;;;;;;;18.83;12.50;;;;;;;;;;5068097;28;20028;-78
2024/03/11 04:02:46;;;;;;;22.90;15.23;;;;;;;;;;5047657;28;20025;-77
2024/03/11 04:05:12;;;;;;;22.02;12.85;;;;;;;;;;5067880;28;20486;-78
2024/03/11 04:07:41;;;;;;;18.23;12.90;;;;;;;;;;5065174;28;20097;-79
2024/03/11 04:10:18;;;;;;;21.75;15.30;;;;;;;;;;5060346;28;20382;-78
2024/03/11 04:12:45;;;;;;;23.02;14.43;;;;;;;;;;5065301;28;20056;-80
2024/03/11 04:15:12;;;;;;;19.95;14.95;;;;;;;;;;5068557;28;20032;-78
2024/03/11 04:17:42;;;;;;;21.45;14.65;;;;;;;;;;5065820;28;20019;-81
2024/03/11 04:20:11;;;;;;;19.10;14.07;;;;;;;;;;5062986;28;20056;-80
2024/03/11 04:22:45;;;;;;;20.80;14.30;;;;;;;;;;5058968;28;20020;-78
2024/03/11 04:25:19;;;;;;;23.67;14.88;;;;;;;;;;5060285;28;20017;-78
2024/03/11 04:27:46;;;;;;;19.52;12.13;;;;;;;;;;5067598;28;20049;-80
2024/03/11 04:30:15;;;;;;;20.17;12.88;;;;;;;;;;5060373;28;20450;-81
2024/03/11 04:32:43;;;;;;;20.17;14.23;;;;;;;;;;5054394;28;20051;-81
2024/03/11 04:35:10;;;;;;;19.60;14.05;;;;;;;;;;5058699;28;20029;-78
2024/03/11 04:37:38;;;;;;;18.60;13.20;;;;;;;;;;5065488;28;20056;-78
2024/03/11 04:40:06;;;;;;;22.63;14.40;;;;;;;;;;5066681;28;20031;-78
2024/03/11 04:42:32;;;;;;;27.58;15.85;;;;;;;;;;5062843;28;20111;-77
2024/03/11 04:44:58;;;;;;;20.85;14.10;;;;;;;;;;5044173;28;20379;-79
2024/03/11 04:47:24;;;;;;;22.08;14.73;;;;;;;;;;5052372;28;20463;-79
2024/03/11 04:49:50;;;;;;;23.98;14.20;;;;;;;;;;5044802;28;20033;-79
2024/03/11 04:52:16;;;;;;;22.60;14.68;;;;;;;;;;5044493;28;20486;-81
2024/03/11 04:54:42;;;;;;;23.73;14.82;;;;;;;;;;5061968;28;20393;-78
2024/03/11 04:57:08;;;;;;;21.27;14.13;;;;;;;;;;5056543;28;20028;-78
2024/03/11 04:59:35;;;;;;;20.10;12.70;;;;;;;;;;5061123;28;20029;-81
2024/03/11 05:02:01;;;;;;;21.35;15.25;;;;;;;;;;5045858;28;20485;-79
2024/03/11 05:04:27;;;;;;;22.02;14.60;;;;;;;;;;5058483;28;20028;-78
2024/03/11 05:06:53;;;;;;;20.73;14.52;;;;;;;;;;5061691;28;20025;-81
2024/03/11 05:09:19;;;;;;;22.45;14.45;;;;;;;;;;5039144;28;20033;-80
2024/03/11 05:11:45;;;;;;;20.80;14.48;;;;;;;;;;5062754;28;20033;-78
2024/03/11 05:14:13;;;;;;;22.83;14.70;;;;;;;;;;5059391;28;20048;-78
2024/03/11 05:16:39;;;;;;;22.52;14.50;;;;;;;;;;5057064;28;20027;-81
2024/03/11 05:19:05;;;;;;;21.33;14.48;;;;;;;;;;5057615;28;20025;-78
2024/03/11 05:21:32;;;;;;;21.58;14.27;;;;;;;;;;5057339;28;20047;-80
2024/03/11 05:23:58;;;;;;;20.33;14.23;;;;;;;;;;5066968;28;20142;-80
2024/03/11 05:26:24;;;;;;;22.98;15.23;;;;;;;;;;5050080;28;20426;-81
2024/03/11 05:28:50;;;;;;;23.80;15.38;;;;;;;;;;5065806;28;20031;-81
2024/03/11 05:31:16;;;;;;;19.20;13.18;;;;;;;;;;5058052;28;20096;-78
2024/03/11 05:33:43;;;;;;;21.92;14.95;;;;;;;;;;5062297;28;20467;-80
2024/03/11 05:36:09;;;;;;;20.42;14.45;;;;;;;;;;5065665;28;20024;-78
2024/03/11 05:38:35;;;;;;;23.60;15.05;;;;;;;;;;5059883;28;20459;-81
2024/03/11 05:41:01;;;;;;;21.15;14.05;;;;;;;;;;5063642;28;20035;-81
2024/03/11 05:43:27;;;;;;;21.42;14.48;;;;;;;;;;5067480;28;20052;-78
2024/03/11 05:45:53;;;;;;;20.38;14.18;;;;;;;;;;5069968;28;20017;-81
2024/03/11 05:48:19;;;;;;;21.08;15.15;;;;;;;;;;5058344;28;20032;-78
2024/03/11 05:50:47;;;;;;;23.83;15.43;;;;;;;;;;5071800;28;20044;-78
2024/03/11 05:53:16;;;;;;;21.10;14.10;;;;;;;;;;5052977;28;20075;-80
2024/03/11 05:55:42;;;;;;;25.95;15.98;;;;;;;;;;5059872;28;20021;-81
2024/03/11 05:58:10;;;;;;;22.38;15.13;;;;;;;;;;5061134;28;20106;-78
2024/03/11 06:00:42;;;;;;;19.58;14.45;;;;;;;;;;5061473;28;20023;-81
2024/03/11 06:03:08;;;;;;;19.63;13.82;;;;;;;;;;5052267;28;20017;-81
2024/03/11 06:05:34;;;;;;;24.13;16.40;;;;;;;;;;5051796;28;20035;-78
2024/03/11 06:08:01;;;;;;;19.23;14.60;;;;;;;;;;5068344;28;20119;-80
2024/03/11 06:10:27;;;;;;;22.33;14.57;;;;;;;;;;5072301;28;20044;-78
2024/03/11 06:12:53;;;;;;;27.08;14.73;;;;;;;;;;5060751;28;20483;-80
2024/03/11 06:15:19;;;;;;;19.98;14.52;;;;;;;;;;5062136;28;20021;-78
2024/03/11 06:17:45;;;;;;;21.50;14.65;;;;;;;;;;5060210;28;20055;-79
2024/03/11 06:20:13;;;;;;;23.65;15.43;;;;;;;;;;5061305;28;20020;-80
2024/03/11 06:22:39;;;;;;;21.10;14.10;;;;;;;;;;5053335;28;20013;-79
2024/03/11 06:25:06;;;;;;;21.67;14.40;;;;;;;;;;5069925;28;20374;-80
2024/03/11 06:27:32;;;;;;;23.63;14.45;;;;;;;;;;5048231;28;20389;-80
2024/03/11 06:29:58;;;;;;;23.00;16.00;;;;;;;;;;5052679;28;20490;-80
2024/03/11 06:32:30;;;;;;;21.67;14.57;;;;;;;;;;5063554;28;20047;-81
2024/03/11 06:34:56;;;;;;;22.20;15.25;;;;;;;;;;5054233;28;20541;-81
2024/03/11 06:37:22;;;;;;;23.20;15.23;;;;;;;;;;5057062;28;20055;-82
2024/03/11 06:39:49;;;;;;;23.35;14.98;;;;;;;;;;5060419;28;20105;-81
2024/03/11 06:42:15;;;;;;;25.27;16.30;;;;;;;;;;5057712;28;20036;-78
2024/03/11 06:44:42;;;;;;;23.35;14.80;;;;;;;;;;5059728;28;20048;-78
2024/03/11 06:47:08;;;;;;;18.10;13.13;;;;;;;;;;5053604;28;20044;-81
2024/03/11 06:49:34;;;;;;;22.58;14.48;;;;;;;;;;5066469;28;20541;-80
2024/03/11 06:52:01;;;;;;;20.27;13.77;;;;;;;;;;5051855;28;20036;-80
2024/03/11 06:54:28;;;;;;;21.63;15.80;;;;;;;;;;5061718;28;20029;-80
2024/03/11 06:56:54;;;;;;;20.88;14.20;;;;;;;;;;5050256;28;20112;-80
2024/03/11 06:59:20;;;;;;;21.20;14.95;;;;;;;;;;5059356;28;20395;-80
2024/03/11 07:01:46;;;;;;;21.77;15.73;;;;;;;;;;5043113;28;20475;-80
2024/03/11 07:04:12;;;;;;;25.30;15.95;;;;;;;;;;5063385;28;20028;-80
2024/03/11 07:06:39;;;;;;;22.10;15.27;;;;;;;;;;5057047;28;20025;-79
2024/03/11 07:09:05;;;;;;;26.33;15.27;;;;;;;;;;5046466;28;20070;-80
2024/03/11 07:11:31;;;;;;;35.55;16.60;;;;;;;;;;5050534;28;20033;-81
2024/03/11 07:13:57;;;;;;;40.22;19.50;;;;;;;;;;5060368;28;20033;-82
2024/03/11 07:16:24;;;;;;;42.38;18.98;;;;;;;;;;5061751;28;20028;-82
2024/03/11 07:18:54;;;;;;;34.05;16.45;;;;;;;;;;5050898;28;20136;-80
2024/03/11 07:21:27;;;;;;;30.92;15.85;;;;;;;;;;5070836;28;20016;-80
2024/03/11 07:23:53;;;;;;;27.92;15.43;;;;;;;;;;5074374;28;20389;-77
2024/03/11 07:26:20;;;;;;;31.10;15.40;;;;;;;;;;5073937;28;20103;-77
2024/03/11 07:28:46;;;;;;;20.60;13.93;;;;;;;;;;5073646;28;20028;-80
2024/03/11 07:31:13;;;;;;;32.45;16.42;;;;;;;;;;5061418;28;20028;-80
2024/03/11 07:33:39;;;;;;;22.50;14.20;;;;;;;;;;5074445;28;20390;-80
2024/03/11 07:36:07;;;;;;;23.35;13.55;;;;;;;;;;5063253;28;20016;-77
2024/03/11 07:38:33;;;;;;;23.17;15.18;;;;;;;;;;5060852;28;20028;-77
2024/03/11 07:40:59;;;;;;;28.25;16.40;;;;;;;;;;5069658;28;20381;-77
2024/03/11 07:43:25;;;;;;;22.55;16.35;;;;;;;;;;5069576;28;20117;-80
2024/03/11 07:45:51;;;;;;;22.70;15.63;;;;;;;;;;5068369;28;20048;-77
2024/03/11 07:48:17;;;;;;;24.42;17.33;;;;;;;;;;5057419;28;20389;-77
2024/03/11 07:50:47;;;;;;;26.10;16.35;;;;;;;;;;5057571;28;20025;-81
2024/03/11 07:53:20;;;;;;;24.38;15.57;;;;;;;;;;5046619;28;20056;-81
2024/03/11 07:56:18;;;;;;;29.90;16.85;;;;;;;;;;5052708;28;20075;-84
2024/03/11 07:58:48;;;;;;;25.95;15.25;;;;;;;;;;5044559;28;20020;-86
2024/03/11 08:01:22;;;;;;;23.45;15.65;;;;;;;;;;5049398;28;20040;-84
2024/03/11 08:04:02;;;;;;;31.63;18.63;;;;;;;;;;5045163;28;20057;-84
2024/03/11 08:06:55;;;;;;;31.45;17.95;;;;;;;;;;5059091;28;20079;-81
2024/03/11 08:12:52;;;;;;;24.10;15.75;;;;;;;;;;5036592;28;20384;-80
2024/03/11 08:15:41;;;;;;;54.40;17.38;;;;;;;;;;4949531;28;20034;-81
2024/03/11 08:18:43;;;;;;;66.28;21.33;;;;;;;;;;5018713;28;20574;-80
2024/03/11 08:21:41;;;;;;;73.90;25.38;;;;;;;;;;5001881;28;20092;-81
2024/03/11 08:24:40;;;;;;;47.47;19.80;;;;;;;;;;4958679;28;20053;-82
2024/03/11 08:27:24;;;;;;;43.22;21.42;;;;;;;;;;4974829;28;20038;-85
2024/03/11 08:33:24;;;;;;;;;;;;;;;;;;;;;
2024/03/11 08:35:55;;;;;;;42.08;18.50;;;;;;;;;;4953944;28;20412;-82
2024/03/11 08:45:33;;;;;;;37.42;17.05;;;;;;;;;;4930296;29;20055;-80
2024/03/11 08:50:52;;;;;;;50.40;22.40;;;;;;;;;;4934888;29;20067;-80
2024/03/11 09:10:15;;;;;;;36.97;20.33;;;;;;;;;;4780809;29;20076;-82
2024/03/11 09:12:42;;;;;;;47.25;23.30;;;;;;;;;;4819208;29;20043;-86
2024/03/11 09:15:18;;;;;;;39.80;19.73;;;;;;;;;;4913686;28;20138;-86
2024/03/11 09:20:57;;;;;;;50.40;25.63;;;;;;;;;;5055108;28;20039;-84
2024/03/11 09:29:15;;;;;;;43.85;22.48;;;;;;;;;;5029822;28;20028;-80
2024/03/11 09:31:42;;;;;;;45.30;24.60;;;;;;;;;;5052859;28;20372;-80
2024/03/11 09:34:09;;;;;;;42.22;22.70;;;;;;;;;;5063488;28;20035;-80
2024/03/11 09:36:36;;;;;;;33.45;20.30;;;;;;;;;;5059476;28;20070;-80
2024/03/11 09:39:03;;;;;;;43.40;24.45;;;;;;;;;;5055859;28;20028;-75
2024/03/11 09:41:34;;;;;;;43.00;22.30;;;;;;;;;;5049893;28;20391;-75
2024/03/11 09:44:02;;;;;;;42.35;25.35;;;;;;;;;;5058665;28;20040;-81
2024/03/11 09:46:28;;;;;;;51.72;24.30;;;;;;;;;;5056429;28;20025;-76
2024/03/11 09:48:54;;;;;;;33.95;22.75;;;;;;;;;;5059534;28;20017;-81
2024/03/11 09:51:24;;;;;;;48.50;24.08;;;;;;;;;;5055094;28;20020;-80
2024/03/11 09:53:58;;;;;;;39.72;24.50;;;;;;;;;;5056496;28;20386;-74
2024/03/11 09:56:25;;;;;;;46.60;24.02;;;;;;;;;;5055762;28;20039;-80
2024/03/11 09:58:58;;;;;;;39.30;22.52;;;;;;;;;;5056264;28;20028;-81
2024/03/11 10:01:30;;;;;;;40.20;21.33;;;;;;;;;;5056795;28;20405;-83
2024/03/11 10:03:57;;;;;;;32.40;20.38;;;;;;;;;;5063109;28;20021;-75
2024/03/11 10:06:24;;;;;;;38.85;22.25;;;;;;;;;;5072525;28;20029;-76
2024/03/11 10:08:50;;;;;;;45.92;21.88;;;;;;;;;;5063211;28;20483;-81
2024/03/11 10:11:24;;;;;;;39.42;23.75;;;;;;;;;;5061397;28;20027;-82
2024/03/11 10:13:52;;;;;;;33.92;21.23;;;;;;;;;;5059346;28;20029;-80
2024/03/11 10:16:24;;;;;;;39.20;22.95;;;;;;;;;;5065188;28;20496;-81
2024/03/11 10:19:12;;;;;;;33.50;20.20;;;;;;;;;;5059067;28;20078;-79
2024/03/11 10:21:42;;;;;;;34.20;20.55;;;;;;;;;;5051256;28;20039;-77
2024/03/11 10:24:08;;;;;;;42.47;24.42;;;;;;;;;;5062241;28;20056;-81
2024/03/11 10:26:40;;;;;;;37.92;22.67;;;;;;;;;;5056534;28;20457;-81
2024/03/11 10:29:07;;;;;;;39.10;22.50;;;;;;;;;;5066725;28;20527;-81
2024/03/11 10:31:33;;;;;;;36.03;19.45;;;;;;;;;;5062464;28;20079;-80
2024/03/11 10:34:20;;;;;;;49.65;23.70;;;;;;;;;;5059454;28;20063;-77
2024/03/11 10:36:46;;;;;;;47.35;22.60;;;;;;;;;;5055722;28;20067;-76
2024/03/11 10:41:51;;;;;;;33.30;21.73;;;;;;;;;;5053566;28;20033;-81
2024/03/11 10:44:26;;;;;;;36.60;21.50;;;;;;;;;;5052595;28;20045;-82
2024/03/11 10:46:55;;;;;;;42.53;22.80;;;;;;;;;;5054346;28;20013;-80
2024/03/11 10:49:21;;;;;;;39.10;21.63;;;;;;;;;;5054241;28;20021;-83
2024/03/11 10:51:48;;;;;;;42.42;20.77;;;;;;;;;;5054017;28;20025;-78
2024/03/11 10:54:28;;;;;;;46.80;25.50;;;;;;;;;;5056084;28;20360;-78
2024/03/11 10:56:55;;;;;;;60.72;24.30;;;;;;;;;;5061762;28;20043;-77
2024/03/11 10:59:22;;;;;;;64.97;26.80;;;;;;;;;;5049576;28;20044;-77
2024/03/11 11:01:52;;;;;;;61.00;25.67;;;;;;;;;;5062528;28;20029;-78
2024/03/11 11:04:19;;;;;;;56.08;24.67;;;;;;;;;;5067740;28;20021;-78
2024/03/11 11:06:47;;;;;;;68.43;29.38;;;;;;;;;;5062767;28;20028;-75
2024/03/11 11:09:13;;;;;;;47.20;24.35;;;;;;;;;;5071975;28;20079;-74
2024/03/11 11:11:52;;;;;;;49.22;24.17;;;;;;;;;;5073364;28;20466;-77
2024/03/11 11:14:18;;;;;;;47.47;25.92;;;;;;;;;;5057453;28;20032;-75
2024/03/11 11:16:45;;;;;;;35.80;20.25;;;;;;;;;;5057148;28;20114;-76
2024/03/11 11:19:17;;;;;;;41.28;22.45;;;;;;;;;;5058579;28;20029;-76
2024/03/11 11:21:43;;;;;;;54.55;28.20;;;;;;;;;;5073439;28;20071;-76
2024/03/11 11:24:29;;;;;;;55.15;25.27;;;;;;;;;;5073430;28;20437;-79
2024/03/11 11:26:56;;;;;;;46.45;23.77;;;;;;;;;;5072998;28;20025;-75
2024/03/11 11:29:24;;;;;;;46.13;26.65;;;;;;;;;;5073289;28;20072;-84
2024/03/11 11:32:03;;;;;;;55.80;26.50;;;;;;;;;;5071080;28;20020;-79
2024/03/11 11:34:44;;;;;;;39.00;22.90;;;;;;;;;;5042668;28;20114;-76
2024/03/11 11:37:13;;;;;;;57.75;26.20;;;;;;;;;;5071095;28;20035;-80
2024/03/11 11:39:42;;;;;;;51.30;27.00;;;;;;;;;;5069137;28;20020;-80
2024/03/11 11:42:28;;;;;;;37.50;22.48;;;;;;;;;;5041649;28;20024;-75
2024/03/11 11:44:55;;;;;;;52.13;27.73;;;;;;;;;;5054018;28;20045;-75
2024/03/11 11:47:23;;;;;;;44.15;24.40;;;;;;;;;;5059773;28;20031;-76
2024/03/11 11:49:50;;;;;;;33.60;19.95;;;;;;;;;;5054957;28;20104;-76
2024/03/11 11:52:23;;;;;;;42.90;23.92;;;;;;;;;;5053342;28;20045;-76
2024/03/11 11:54:53;;;;;;;46.33;22.25;;;;;;;;;;5056703;28;20202;-77
2024/03/11 11:57:21;;;;;;;43.38;24.63;;;;;;;;;;5073237;28;20081;-77
2024/03/11 11:59:58;;;;;;;46.83;24.35;;;;;;;;;;5072254;28;20367;-77
2024/03/11 12:02:27;;;;;;;40.50;21.63;;;;;;;;;;5055523;28;20018;-76
2024/03/11 12:04:54;;;;;;;53.47;25.55;;;;;;;;;;5051474;28;20362;-75
2024/03/11 12:07:24;;;;;;;37.35;24.95;;;;;;;;;;5059303;28;20120;-76
2024/03/11 12:09:50;;;;;;;44.40;24.13;;;;;;;;;;5064842;28;20020;-77
2024/03/11 12:12:25;;;;;;;49.65;27.13;;;;;;;;;;5049977;28;20090;-76
2024/03/11 12:14:51;;;;;;;50.97;26.85;;;;;;;;;;5054558;28;20021;-76
2024/03/11 12:17:18;;;;;;;50.55;27.08;;;;;;;;;;5057817;28;20493;-74
2024/03/11 12:19:44;;;;;;;45.67;24.90;;;;;;;;;;5054576;28;20024;-75
2024/03/11 12:22:14;;;;;;;40.90;22.85;;;;;;;;;;5049131;28;20025;-75
2024/03/11 12:24:41;;;;;;;33.00;20.45;;;;;;;;;;5057808;28;20013;-75
2024/03/11 12:27:12;;;;;;;36.17;24.55;;;;;;;;;;5058072;28;20036;-75
2024/03/11 12:29:39;;;;;;;45.88;24.58;;;;;;;;;;5069409;28;20028;-75
2024/03/11 12:32:11;;;;;;;44.30;26.98;;;;;;;;;;5053320;28;20041;-75
2024/03/11 12:34:37;;;;;;;39.97;23.25;;;;;;;;;;5053120;28;20048;-75
2024/03/11 12:37:04;;;;;;;39.72;23.67;;;;;;;;;;5067403;28;20036;-75
2024/03/11 12:42:09;;;;;;;42.35;24.20;;;;;;;;;;5065412;28;20466;-75
2024/03/11 12:44:36;;;;;;;48.05;25.40;;;;;;;;;;5072685;28;20514;-76
2024/03/11 12:47:03;;;;;;;43.15;25.05;;;;;;;;;;5066809;28;20481;-75
2024/03/11 12:49:29;;;;;;;33.20;20.45;;;;;;;;;;5068501;28;20021;-75
2024/03/11 12:52:02;;;;;;;28.13;18.45;;;;;;;;;;5067802;28;20035;-75
2024/03/11 12:54:28;;;;;;;;;;;;;;;;;;5059455;28;20075;-75
2024/03/11 12:57:13;;;;;;;34.30;19.77;;;;;;;;;;5045154;28;19913;-76
2024/03/11 12:59:45;;;;;;;33.17;21.80;;;;;;;;;;5060193;28;20055;-75
2024/03/11 13:02:18;;;;;;;37.40;23.73;;;;;;;;;;5054718;28;20133;-75
2024/03/11 13:04:47;;;;;;;31.10;20.80;;;;;;;;;;5050036;28;20020;-74
2024/03/11 13:07:14;;;;;;;31.98;21.08;;;;;;;;;;5054229;28;20095;-74
2024/03/11 13:09:40;;;;;;;35.03;19.52;;;;;;;;;;5053165;28;20379;-74
2024/03/11 13:12:13;;;;;;;32.78;21.48;;;;;;;;;;5043828;28;20039;-74
2024/03/11 13:14:40;;;;;;;38.42;22.80;;;;;;;;;;5053113;28;20013;-75
2024/03/11 13:17:09;;;;;;;35.75;22.13;;;;;;;;;;5042471;28;20060;-75
2024/03/11 13:19:36;;;;;;;30.63;21.27;;;;;;;;;;5050632;28;20036;-74
2024/03/11 13:22:17;;;;;;;36.40;24.35;;;;;;;;;;5041674;28;20025;-75
2024/03/11 13:24:44;;;;;;;35.30;21.38;;;;;;;;;;5047665;28;20068;-74
2024/03/11 13:27:11;;;;;;;34.40;21.45;;;;;;;;;;5040660;28;20029;-74
2024/03/11 13:29:42;;;;;;;31.13;21.85;;;;;;;;;;5038840;28;20391;-74
2024/03/11 13:32:09;;;;;;;35.10;22.63;;;;;;;;;;5051643;28;20032;-75
2024/03/11 13:34:35;;;;;;;34.60;22.17;;;;;;;;;;5038524;28;20049;-74
2024/03/11 13:37:03;;;;;;;43.63;24.65;;;;;;;;;;5043402;28;20131;-74
2024/03/11 13:39:38;;;;;;;36.70;24.92;;;;;;;;;;5044795;28;20018;-75
2024/03/11 13:42:06;;;;;;;35.65;23.25;;;;;;;;;;5053854;28;20017;-77
2024/03/11 13:44:33;;;;;;;39.13;22.70;;;;;;;;;;5037846;28;20085;-75
2024/03/11 13:47:00;;;;;;;38.50;23.50;;;;;;;;;;5048148;28;20020;-76
2024/03/11 13:49:27;;;;;;;33.60;21.88;;;;;;;;;;5058135;28;20117;-76
2024/03/11 13:51:54;;;;;;;31.35;21.75;;;;;;;;;;5030488;28;20109;-76
2024/03/11 13:54:21;;;;;;;33.38;21.20;;;;;;;;;;5056871;28;20158;-76
2024/03/11 13:56:47;;;;;;;35.60;21.45;;;;;;;;;;5053131;28;20043;-75
2024/03/11 13:59:16;;;;;;;39.00;21.88;;;;;;;;;;5053614;28;20052;-76
2024/03/11 14:01:45;;;;;;;33.65;21.35;;;;;;;;;;5055179;28;20062;-76
2024/03/11 14:04:11;;;;;;;32.33;21.08;;;;;;;;;;5044542;28;20013;-76
2024/03/11 14:06:40;;;;;;;37.65;22.85;;;;;;;;;;5046916;28;20143;-76
2024/03/11 14:09:10;;;;;;;34.47;22.25;;;;;;;;;;5049616;28;20033;-76
2024/03/11 14:11:36;;;;;;;34.75;22.00;;;;;;;;;;5046939;28;20044;-75
2024/03/11 14:14:02;;;;;;;36.47;22.73;;;;;;;;;;5051240;28;20138;-76
2024/03/11 14:16:28;;;;;;;37.45;22.67;;;;;;;;;;5045594;28;20076;-75
2024/03/11 14:18:56;;;;;;;40.03;24.25;;;;;;;;;;5048377;28;20163;-75
2024/03/11 14:21:24;;;;;;;43.38;25.00;;;;;;;;;;5043053;28;20513;-76
2024/03/11 14:23:50;;;;;;;35.53;23.63;;;;;;;;;;5045909;28;20108;-75
2024/03/11 14:26:18;;;;;;;40.53;24.35;;;;;;;;;;5042548;28;20604;-76
2024/03/11 14:28:46;;;;;;;35.45;23.35;;;;;;;;;;5038394;28;20075;-75
2024/03/11 14:31:13;;;;;;;39.72;25.30;;;;;;;;;;5048336;28;20072;-75
2024/03/11 14:33:41;;;;;;;38.97;24.35;;;;;;;;;;5048930;28;20594;-75
2024/03/11 14:36:08;;;;;;;43.85;25.67;;;;;;;;;;5046846;28;20386;-74
2024/03/11 14:38:34;;;;;;;44.15;26.17;;;;;;;;;;5052725;28;20029;-80
2024/03/11 14:41:00;;;;;;;44.97;25.35;;;;;;;;;;5049216;28;20080;-80
2024/03/11 14:43:31;;;;;;;48.50;30.40;;;;;;;;;;5046247;28;20029;-81
2024/03/11 14:45:58;;;;;;;45.25;27.55;;;;;;;;;;5054203;28;20033;-80
2024/03/11 14:48:28;;;;;;;52.50;30.00;;;;;;;;;;5048909;28;20033;-80
2024/03/11 14:50:55;;;;;;;46.72;25.90;;;;;;;;;;5047990;28;20478;-80
2024/03/11 14:53:23;;;;;;;46.33;29.23;;;;;;;;;;5053899;28;21292;-80
2024/03/11 14:55:49;;;;;;;44.38;25.65;;;;;;;;;;5054552;28;20485;-81
2024/03/11 14:58:20;;;;;;;50.45;27.70;;;;;;;;;;5047488;28;20052;-80
2024/03/11 15:00:48;;;;;;;45.42;26.83;;;;;;;;;;5050549;28;20017;-80
2024/03/11 15:03:15;;;;;;;43.03;26.13;;;;;;;;;;5051117;28;20041;-75
2024/03/11 15:05:45;;;;;;;48.25;27.10;;;;;;;;;;5051212;28;20078;-76
2024/03/11 15:08:12;;;;;;;39.85;23.45;;;;;;;;;;5049321;28;20375;-76
2024/03/11 15:10:40;;;;;;;39.22;24.65;;;;;;;;;;5060290;28;20097;-74
2024/03/11 15:13:08;;;;;;;43.60;25.35;;;;;;;;;;5051360;28;20041;-75